sensor_id;sensor_type;location;lat;lon;timestamp;temperature;humidity
22698;DHT22;11516;51.612;7.510;2022-12-11T00:02:18;1.20;99.90
22698;DHT22;11516;51.612;7.510;2022-12-11T00:04:44;1.10;99.90
22698;DHT22;11516;51.612;7.510;2022-12-11T00:07:09;1.10;99.90
22698;DHT22;11516;51.612;7.510;2022-12-11T00:09:35;1.10;99.90
22698;DHT22;11516;51.612;7.510;2022-12-11T00:12:01;1.10;99.90
22698;DHT22;11516;51.612;7.510;2022-12-11T00:14:29;1.10;99.90
22698;DHT22;11516;51.612;7.510;2022-12-11T00:16:56;1.20;99.90
22698;DHT22;11516;51.612;7.510;2022-12-11T00:19:21;1.10;99.90
22698;DHT22;11516;51.612;7.510;2022-12-11T00:21:47;1.10;99.90
22698;DHT22;11516;51.612;7.510;2022-12-11T00:24:12;1.10;99.90
22698;DHT22;11516;51.612;7.510;2022-12-11T00:26:38;1.20;99.90
22698;DHT22;11516;51.612;7.510;2022-12-11T00:29:04;1.10;99.90
22698;DHT22;11516;51.612;7.510;2022-12-11T00:31:29;1.30;99.90
22698;DHT22;11516;51.612;7.510;2022-12-11T00:33:55;1.20;99.90
22698;DHT22;11516;51.612;7.510;2022-12-11T00:36:25;1.10;99.90
22698;DHT22;11516;51.612;7.510;2022-12-11T00:38:51;1.00;99.90
22698;DHT22;11516;51.612;7.510;2022-12-11T00:41:17;1.00;99.90
22698;DHT22;11516;51.612;7.510;2022-12-11T00:43:43;1.00;99.90
22698;DHT22;11516;51.612;7.510;2022-12-11T00:46:09;1.00;99.90
22698;DHT22;11516;51.612;7.510;2022-12-11T00:48:35;1.00;99.90
22698;DHT22;11516;51.612;7.510;2022-12-11T00:51:00;0.90;99.90
22698;DHT22;11516;51.612;7.510;2022-12-11T00:53:26;0.90;99.90
22698;DHT22;11516;51.612;7.510;2022-12-11T00:55:52;0.90;99.90
22698;DHT22;11516;51.612;7.510;2022-12-11T00:58:17;0.80;99.90
22698;DHT22;11516;51.612;7.510;2022-12-11T01:00:43;0.80;99.90
22698;DHT22;11516;51.612;7.510;2022-12-11T01:03:10;0.70;99.90
22698;DHT22;11516;51.612;7.510;2022-12-11T01:05:37;0.70;99.90
22698;DHT22;11516;51.612;7.510;2022-12-11T01:08:03;0.80;99.90
22698;DHT22;11516;51.612;7.510;2022-12-11T01:10:30;0.80;99.90
22698;DHT22;11516;51.612;7.510;2022-12-11T01:12:58;0.80;99.90
22698;DHT22;11516;51.612;7.510;2022-12-11T01:15:27;0.70;99.90
22698;DHT22;11516;51.612;7.510;2022-12-11T01:17:54;0.70;99.90
22698;DHT22;11516;51.612;7.510;2022-12-11T01:20:21;0.70;99.90
22698;DHT22;11516;51.612;7.510;2022-12-11T01:22:47;0.70;99.90
22698;DHT22;11516;51.612;7.510;2022-12-11T01:25:13;0.70;99.90
22698;DHT22;11516;51.612;7.510;2022-12-11T01:27:38;0.60;99.90
22698;DHT22;11516;51.612;7.510;2022-12-11T01:30:06;0.60;99.90
22698;DHT22;11516;51.612;7.510;2022-12-11T01:32:33;0.60;99.90
22698;DHT22;11516;51.612;7.510;2022-12-11T01:34:59;0.70;99.90
22698;DHT22;11516;51.612;7.510;2022-12-11T01:37:24;0.70;99.90
22698;DHT22;11516;51.612;7.510;2022-12-11T01:39:50;0.70;99.90
22698;DHT22;11516;51.612;7.510;2022-12-11T01:42:19;0.70;99.90
22698;DHT22;11516;51.612;7.510;2022-12-11T01:47:10;0.60;99.90
22698;DHT22;11516;51.612;7.510;2022-12-11T01:49:38;0.70;99.90
22698;DHT22;11516;51.612;7.510;2022-12-11T01:52:11;0.60;99.90
22698;DHT22;11516;51.612;7.510;2022-12-11T01:54:40;0.70;99.90
22698;DHT22;11516;51.612;7.510;2022-12-11T01:57:07;0.70;99.90
22698;DHT22;11516;51.612;7.510;2022-12-11T01:59:36;0.80;99.90
22698;DHT22;11516;51.612;7.510;2022-12-11T02:02:07;0.80;99.90
22698;DHT22;11516;51.612;7.510;2022-12-11T02:04:36;0.90;99.90
22698;DHT22;11516;51.612;7.510;2022-12-11T02:07:02;0.80;99.90
22698;DHT22;11516;51.612;7.510;2022-12-11T02:09:32;0.90;99.90
22698;DHT22;11516;51.612;7.510;2022-12-11T02:12:09;0.90;99.90
22698;DHT22;11516;51.612;7.510;2022-12-11T02:17:40;1.10;99.90
22698;DHT22;11516;51.612;7.510;2022-12-11T02:20:17;1.10;99.90
22698;DHT22;11516;51.612;7.510;2022-12-11T02:25:30;1.10;99.90
22698;DHT22;11516;51.612;7.510;2022-12-11T02:28:14;1.10;99.90
22698;DHT22;11516;51.612;7.510;2022-12-11T02:30:41;1.10;99.90
22698;DHT22;11516;51.612;7.510;2022-12-11T02:33:10;1.20;99.90
22698;DHT22;11516;51.612;7.510;2022-12-11T02:35:40;1.30;99.90
22698;DHT22;11516;51.612;7.510;2022-12-11T02:38:22;1.30;99.90
22698;DHT22;11516;51.612;7.510;2022-12-11T02:40:51;1.40;99.90
22698;DHT22;11516;51.612;7.510;2022-12-11T02:43:18;1.40;99.90
22698;DHT22;11516;51.612;7.510;2022-12-11T02:45:45;1.30;99.90
22698;DHT22;11516;51.612;7.510;2022-12-11T02:48:12;1.30;99.90
22698;DHT22;11516;51.612;7.510;2022-12-11T02:50:43;1.30;99.90
22698;DHT22;11516;51.612;7.510;2022-12-11T02:53:11;1.20;99.90
22698;DHT22;11516;51.612;7.510;2022-12-11T02:55:39;1.10;99.90
22698;DHT22;11516;51.612;7.510;2022-12-11T02:58:15;1.00;99.90
22698;DHT22;11516;51.612;7.510;2022-12-11T03:00:43;1.00;99.90
22698;DHT22;11516;51.612;7.510;2022-12-11T03:03:09;1.00;99.90
22698;DHT22;11516;51.612;7.510;2022-12-11T03:05:35;1.10;99.90
22698;DHT22;11516;51.612;7.510;2022-12-11T03:08:01;1.00;99.90
22698;DHT22;11516;51.612;7.510;2022-12-11T03:10:26;1.10;99.90
22698;DHT22;11516;51.612;7.510;2022-12-11T03:12:54;1.10;99.90
22698;DHT22;11516;51.612;7.510;2022-12-11T03:15:27;1.20;99.90
22698;DHT22;11516;51.612;7.510;2022-12-11T03:17:59;1.30;99.90
22698;DHT22;11516;51.612;7.510;2022-12-11T03:20:53;1.40;99.90
22698;DHT22;11516;51.612;7.510;2022-12-11T03:26:23;1.40;99.90
22698;DHT22;11516;51.612;7.510;2022-12-11T03:28:58;1.20;99.90
22698;DHT22;11516;51.612;7.510;2022-12-11T03:31:30;1.20;99.90
22698;DHT22;11516;51.612;7.510;2022-12-11T03:34:00;1.00;99.90
22698;DHT22;11516;51.612;7.510;2022-12-11T03:36:33;1.00;99.90
22698;DHT22;11516;51.612;7.510;2022-12-11T03:39:09;1.00;99.90
22698;DHT22;11516;51.612;7.510;2022-12-11T03:41:39;1.00;99.90
22698;DHT22;11516;51.612;7.510;2022-12-11T03:44:05;1.00;99.90
22698;DHT22;11516;51.612;7.510;2022-12-11T03:46:35;1.00;99.90
22698;DHT22;11516;51.612;7.510;2022-12-11T03:49:09;1.00;99.90
22698;DHT22;11516;51.612;7.510;2022-12-11T03:51:38;1.00;99.90
22698;DHT22;11516;51.612;7.510;2022-12-11T03:54:04;1.00;99.90
22698;DHT22;11516;51.612;7.510;2022-12-11T03:56:33;1.10;99.90
22698;DHT22;11516;51.612;7.510;2022-12-11T03:58:59;1.20;99.90
22698;DHT22;11516;51.612;7.510;2022-12-11T04:01:25;1.20;99.90
22698;DHT22;11516;51.612;7.510;2022-12-11T04:03:51;1.20;99.90
22698;DHT22;11516;51.612;7.510;2022-12-11T04:06:16;1.20;99.90
22698;DHT22;11516;51.612;7.510;2022-12-11T04:08:42;1.10;99.90
22698;DHT22;11516;51.612;7.510;2022-12-11T04:11:08;1.30;99.90
22698;DHT22;11516;51.612;7.510;2022-12-11T04:13:52;1.40;99.90
22698;DHT22;11516;51.612;7.510;2022-12-11T04:16:38;1.20;99.90
22698;DHT22;11516;51.612;7.510;2022-12-11T04:19:04;1.10;99.90
22698;DHT22;11516;51.612;7.510;2022-12-11T04:21:48;1.20;99.90
22698;DHT22;11516;51.612;7.510;2022-12-11T04:24:33;1.20;99.90
22698;DHT22;11516;51.612;7.510;2022-12-11T04:26:58;1.20;99.90
22698;DHT22;11516;51.612;7.510;2022-12-11T04:29:24;1.10;99.90
22698;DHT22;11516;51.612;7.510;2022-12-11T04:31:50;1.20;99.90
22698;DHT22;11516;51.612;7.510;2022-12-11T04:34:15;1.20;99.90
22698;DHT22;11516;51.612;7.510;2022-12-11T04:36:41;1.20;99.90
22698;DHT22;11516;51.612;7.510;2022-12-11T04:39:07;1.30;99.90
22698;DHT22;11516;51.612;7.510;2022-12-11T04:41:32;1.30;99.90
22698;DHT22;11516;51.612;7.510;2022-12-11T04:43:58;1.30;99.90
22698;DHT22;11516;51.612;7.510;2022-12-11T04:46:24;1.20;99.90
22698;DHT22;11516;51.612;7.510;2022-12-11T04:48:51;1.20;99.90
22698;DHT22;11516;51.612;7.510;2022-12-11T04:51:16;1.30;99.90
22698;DHT22;11516;51.612;7.510;2022-12-11T04:53:43;1.10;99.90
22698;DHT22;11516;51.612;7.510;2022-12-11T04:56:11;1.30;99.90
22698;DHT22;11516;51.612;7.510;2022-12-11T04:58:40;1.40;99.90
22698;DHT22;11516;51.612;7.510;2022-12-11T05:01:18;1.20;99.90
22698;DHT22;11516;51.612;7.510;2022-12-11T05:03:44;1.20;99.90
22698;DHT22;11516;51.612;7.510;2022-12-11T05:06:11;1.20;99.90
22698;DHT22;11516;51.612;7.510;2022-12-11T05:08:38;1.10;99.90
22698;DHT22;11516;51.612;7.510;2022-12-11T05:11:09;1.00;99.90
22698;DHT22;11516;51.612;7.510;2022-12-11T05:13:36;1.00;99.90
22698;DHT22;11516;51.612;7.510;2022-12-11T05:16:06;1.00;99.90
22698;DHT22;11516;51.612;7.510;2022-12-11T05:18:32;1.00;99.90
22698;DHT22;11516;51.612;7.510;2022-12-11T05:21:00;1.00;99.90
22698;DHT22;11516;51.612;7.510;2022-12-11T05:23:26;1.00;99.90
22698;DHT22;11516;51.612;7.510;2022-12-11T05:25:53;1.10;99.90
22698;DHT22;11516;51.612;7.510;2022-12-11T05:28:19;1.10;99.90
22698;DHT22;11516;51.612;7.510;2022-12-11T05:30:44;1.20;99.90
22698;DHT22;11516;51.612;7.510;2022-12-11T05:33:10;1.20;99.90
22698;DHT22;11516;51.612;7.510;2022-12-11T05:35:35;1.10;99.90
22698;DHT22;11516;51.612;7.510;2022-12-11T05:38:01;1.10;99.90
22698;DHT22;11516;51.612;7.510;2022-12-11T05:40:26;1.10;99.90
22698;DHT22;11516;51.612;7.510;2022-12-11T05:42:52;1.10;99.90
22698;DHT22;11516;51.612;7.510;2022-12-11T05:45:17;1.20;99.90
22698;DHT22;11516;51.612;7.510;2022-12-11T05:47:43;1.30;99.90
22698;DHT22;11516;51.612;7.510;2022-12-11T05:50:09;1.30;99.90
22698;DHT22;11516;51.612;7.510;2022-12-11T05:52:35;1.10;99.90
22698;DHT22;11516;51.612;7.510;2022-12-11T05:55:00;1.10;99.90
22698;DHT22;11516;51.612;7.510;2022-12-11T05:57:26;1.10;99.90
22698;DHT22;11516;51.612;7.510;2022-12-11T05:59:51;1.10;99.90
22698;DHT22;11516;51.612;7.510;2022-12-11T06:02:19;1.10;99.90
22698;DHT22;11516;51.612;7.510;2022-12-11T06:04:44;1.10;99.90
22698;DHT22;11516;51.612;7.510;2022-12-11T06:07:10;1.10;99.90
22698;DHT22;11516;51.612;7.510;2022-12-11T06:09:35;1.10;99.90
22698;DHT22;11516;51.612;7.510;2022-12-11T06:12:01;1.10;99.90
22698;DHT22;11516;51.612;7.510;2022-12-11T06:14:26;1.10;99.90
22698;DHT22;11516;51.612;7.510;2022-12-11T06:16:51;1.10;99.90
22698;DHT22;11516;51.612;7.510;2022-12-11T06:19:17;1.20;99.90
22698;DHT22;11516;51.612;7.510;2022-12-11T06:21:44;1.20;99.90
22698;DHT22;11516;51.612;7.510;2022-12-11T06:24:10;1.10;99.90
22698;DHT22;11516;51.612;7.510;2022-12-11T06:26:35;1.10;99.90
22698;DHT22;11516;51.612;7.510;2022-12-11T06:29:01;1.10;99.90
22698;DHT22;11516;51.612;7.510;2022-12-11T06:31:27;1.20;99.90
22698;DHT22;11516;51.612;7.510;2022-12-11T06:33:52;1.20;99.90
22698;DHT22;11516;51.612;7.510;2022-12-11T06:36:21;1.30;99.90
22698;DHT22;11516;51.612;7.510;2022-12-11T06:38:47;1.20;99.90
22698;DHT22;11516;51.612;7.510;2022-12-11T06:41:12;1.30;99.90
22698;DHT22;11516;51.612;7.510;2022-12-11T06:43:40;1.20;99.90
22698;DHT22;11516;51.612;7.510;2022-12-11T06:46:09;1.30;99.90
22698;DHT22;11516;51.612;7.510;2022-12-11T06:48:36;1.30;99.90
22698;DHT22;11516;51.612;7.510;2022-12-11T06:51:06;1.30;99.90
22698;DHT22;11516;51.612;7.510;2022-12-11T06:53:32;1.20;99.90
22698;DHT22;11516;51.612;7.510;2022-12-11T06:56:06;1.20;99.90
22698;DHT22;11516;51.612;7.510;2022-12-11T06:58:33;1.20;99.90
22698;DHT22;11516;51.612;7.510;2022-12-11T07:00:59;1.30;99.90
22698;DHT22;11516;51.612;7.510;2022-12-11T07:03:24;1.40;99.90
22698;DHT22;11516;51.612;7.510;2022-12-11T07:05:50;1.50;99.90
22698;DHT22;11516;51.612;7.510;2022-12-11T07:08:15;1.40;99.90
22698;DHT22;11516;51.612;7.510;2022-12-11T07:10:41;1.50;99.90
22698;DHT22;11516;51.612;7.510;2022-12-11T07:13:06;1.60;99.90
22698;DHT22;11516;51.612;7.510;2022-12-11T07:15:32;1.60;99.90
22698;DHT22;11516;51.612;7.510;2022-12-11T07:17:57;1.80;99.90
22698;DHT22;11516;51.612;7.510;2022-12-11T07:20:23;1.70;99.90
22698;DHT22;11516;51.612;7.510;2022-12-11T07:22:49;1.60;99.90
22698;DHT22;11516;51.612;7.510;2022-12-11T07:25:15;1.70;99.90
22698;DHT22;11516;51.612;7.510;2022-12-11T07:27:41;1.60;99.90
22698;DHT22;11516;51.612;7.510;2022-12-11T07:30:07;1.60;99.90
22698;DHT22;11516;51.612;7.510;2022-12-11T07:32:33;1.70;99.90
22698;DHT22;11516;51.612;7.510;2022-12-11T07:34:58;1.70;99.90
22698;DHT22;11516;51.612;7.510;2022-12-11T07:37:24;1.80;99.90
22698;DHT22;11516;51.612;7.510;2022-12-11T07:39:49;1.80;99.90
22698;DHT22;11516;51.612;7.510;2022-12-11T07:42:15;1.80;99.90
22698;DHT22;11516;51.612;7.510;2022-12-11T07:44:40;1.80;99.90
22698;DHT22;11516;51.612;7.510;2022-12-11T07:47:06;1.80;99.90
22698;DHT22;11516;51.612;7.510;2022-12-11T07:49:31;1.70;99.90
22698;DHT22;11516;51.612;7.510;2022-12-11T07:51:57;1.70;99.90
22698;DHT22;11516;51.612;7.510;2022-12-11T07:54:22;1.70;99.90
22698;DHT22;11516;51.612;7.510;2022-12-11T07:56:48;1.60;99.90
22698;DHT22;11516;51.612;7.510;2022-12-11T07:59:14;1.60;99.90
22698;DHT22;11516;51.612;7.510;2022-12-11T08:01:41;1.60;99.90
22698;DHT22;11516;51.612;7.510;2022-12-11T08:04:09;1.60;99.90
22698;DHT22;11516;51.612;7.510;2022-12-11T08:06:37;1.60;99.90
22698;DHT22;11516;51.612;7.510;2022-12-11T08:09:06;1.70;99.90
22698;DHT22;11516;51.612;7.510;2022-12-11T08:11:32;1.70;99.90
22698;DHT22;11516;51.612;7.510;2022-12-11T08:13:58;1.70;99.90
22698;DHT22;11516;51.612;7.510;2022-12-11T08:16:24;1.70;99.90
22698;DHT22;11516;51.612;7.510;2022-12-11T08:18:50;1.80;99.90
22698;DHT22;11516;51.612;7.510;2022-12-11T08:21:21;1.90;99.90
22698;DHT22;11516;51.612;7.510;2022-12-11T08:23:48;1.90;99.90
22698;DHT22;11516;51.612;7.510;2022-12-11T08:26:17;1.90;99.90
22698;DHT22;11516;51.612;7.510;2022-12-11T08:28:43;1.90;99.90
22698;DHT22;11516;51.612;7.510;2022-12-11T08:31:10;1.90;99.90
22698;DHT22;11516;51.612;7.510;2022-12-11T08:33:37;1.90;99.90
22698;DHT22;11516;51.612;7.510;2022-12-11T08:36:07;1.90;99.90
22698;DHT22;11516;51.612;7.510;2022-12-11T08:38:33;2.00;99.90
22698;DHT22;11516;51.612;7.510;2022-12-11T08:41:07;1.90;99.90
22698;DHT22;11516;51.612;7.510;2022-12-11T08:43:33;2.00;99.90
22698;DHT22;11516;51.612;7.510;2022-12-11T08:45:58;2.00;99.90
22698;DHT22;11516;51.612;7.510;2022-12-11T08:48:24;2.00;99.90
22698;DHT22;11516;51.612;7.510;2022-12-11T08:50:49;1.80;99.90
22698;DHT22;11516;51.612;7.510;2022-12-11T08:53:15;1.80;99.90
22698;DHT22;11516;51.612;7.510;2022-12-11T08:55:40;1.80;99.90
22698;DHT22;11516;51.612;7.510;2022-12-11T08:58:06;1.80;99.90
22698;DHT22;11516;51.612;7.510;2022-12-11T09:00:32;1.80;99.90
22698;DHT22;11516;51.612;7.510;2022-12-11T09:02:57;1.90;99.90
22698;DHT22;11516;51.612;7.510;2022-12-11T09:05:23;1.90;99.90
22698;DHT22;11516;51.612;7.510;2022-12-11T09:07:48;1.90;99.90
22698;DHT22;11516;51.612;7.510;2022-12-11T09:10:14;1.80;99.90
22698;DHT22;11516;51.612;7.510;2022-12-11T09:12:39;1.80;99.90
22698;DHT22;11516;51.612;7.510;2022-12-11T09:15:05;1.80;99.90
22698;DHT22;11516;51.612;7.510;2022-12-11T09:17:32;1.90;99.90
22698;DHT22;11516;51.612;7.510;2022-12-11T09:19:57;2.00;99.90
22698;DHT22;11516;51.612;7.510;2022-12-11T09:22:23;2.00;99.90
22698;DHT22;11516;51.612;7.510;2022-12-11T09:24:48;2.00;99.90
22698;DHT22;11516;51.612;7.510;2022-12-11T09:27:14;1.90;99.90
22698;DHT22;11516;51.612;7.510;2022-12-11T09:29:39;1.80;99.90
22698;DHT22;11516;51.612;7.510;2022-12-11T09:32:05;1.70;99.90
22698;DHT22;11516;51.612;7.510;2022-12-11T09:34:31;1.70;99.90
22698;DHT22;11516;51.612;7.510;2022-12-11T09:36:56;1.70;99.90
22698;DHT22;11516;51.612;7.510;2022-12-11T09:39:22;1.70;99.90
22698;DHT22;11516;51.612;7.510;2022-12-11T09:47:24;1.80;99.90
22698;DHT22;11516;51.612;7.510;2022-12-11T09:50:19;1.70;99.90
22698;DHT22;11516;51.612;7.510;2022-12-11T09:53:14;1.80;99.90
22698;DHT22;11516;51.612;7.510;2022-12-11T10:04:29;2.00;99.90
22698;DHT22;11516;51.612;7.510;2022-12-11T10:07:15;1.90;99.90
22698;DHT22;11516;51.612;7.510;2022-12-11T10:12:44;1.80;99.90
22698;DHT22;11516;51.612;7.510;2022-12-11T10:15:23;1.80;99.90
22698;DHT22;11516;51.612;7.510;2022-12-11T10:17:53;1.80;99.90
22698;DHT22;11516;51.612;7.510;2022-12-11T10:20:33;2.00;99.90
22698;DHT22;11516;51.612;7.510;2022-12-11T10:23:05;1.90;99.90
22698;DHT22;11516;51.612;7.510;2022-12-11T10:25:35;2.00;99.90
22698;DHT22;11516;51.612;7.510;2022-12-11T10:28:12;2.00;99.90
22698;DHT22;11516;51.612;7.510;2022-12-11T10:33:22;2.00;99.90
22698;DHT22;11516;51.612;7.510;2022-12-11T10:35:53;1.90;99.90
22698;DHT22;11516;51.612;7.510;2022-12-11T10:38:24;1.90;99.90
22698;DHT22;11516;51.612;7.510;2022-12-11T10:41:00;1.80;99.90
22698;DHT22;11516;51.612;7.510;2022-12-11T10:43:38;1.90;99.90
22698;DHT22;11516;51.612;7.510;2022-12-11T10:46:06;1.80;99.90
22698;DHT22;11516;51.612;7.510;2022-12-11T10:48:32;1.90;99.90
22698;DHT22;11516;51.612;7.510;2022-12-11T10:51:02;1.90;99.90
22698;DHT22;11516;51.612;7.510;2022-12-11T10:53:28;2.00;99.90
22698;DHT22;11516;51.612;7.510;2022-12-11T10:55:55;2.00;99.90
22698;DHT22;11516;51.612;7.510;2022-12-11T10:58:25;1.90;99.90
22698;DHT22;11516;51.612;7.510;2022-12-11T11:01:15;1.90;99.90
22698;DHT22;11516;51.612;7.510;2022-12-11T11:04:13;2.00;99.90
22698;DHT22;11516;51.612;7.510;2022-12-11T11:06:39;2.10;99.90
22698;DHT22;11516;51.612;7.510;2022-12-11T11:09:29;2.20;99.90
22698;DHT22;11516;51.612;7.510;2022-12-11T11:11:55;2.00;99.90
22698;DHT22;11516;51.612;7.510;2022-12-11T11:14:21;2.00;99.90
22698;DHT22;11516;51.612;7.510;2022-12-11T11:16:51;1.90;99.90
22698;DHT22;11516;51.612;7.510;2022-12-11T11:19:22;1.90;99.90
22698;DHT22;11516;51.612;7.510;2022-12-11T11:21:54;1.90;99.90
22698;DHT22;11516;51.612;7.510;2022-12-11T11:24:25;1.80;99.90
22698;DHT22;11516;51.612;7.510;2022-12-11T11:26:51;1.90;99.90
22698;DHT22;11516;51.612;7.510;2022-12-11T11:29:28;2.00;99.90
22698;DHT22;11516;51.612;7.510;2022-12-11T11:31:55;2.00;99.90
22698;DHT22;11516;51.612;7.510;2022-12-11T11:34:21;2.00;99.90
22698;DHT22;11516;51.612;7.510;2022-12-11T11:36:57;2.00;99.90
22698;DHT22;11516;51.612;7.510;2022-12-11T11:39:32;2.00;99.90
22698;DHT22;11516;51.612;7.510;2022-12-11T11:42:25;2.10;99.90
22698;DHT22;11516;51.612;7.510;2022-12-11T11:45:21;2.10;99.90
22698;DHT22;11516;51.612;7.510;2022-12-11T11:47:57;2.30;99.90
22698;DHT22;11516;51.612;7.510;2022-12-11T11:50:30;2.20;99.90
22698;DHT22;11516;51.612;7.510;2022-12-11T11:53:09;2.20;99.90
22698;DHT22;11516;51.612;7.510;2022-12-11T11:58:29;2.20;99.90
22698;DHT22;11516;51.612;7.510;2022-12-11T12:00:59;2.10;99.90
22698;DHT22;11516;51.612;7.510;2022-12-11T12:03:25;2.20;99.90
22698;DHT22;11516;51.612;7.510;2022-12-11T12:12:15;2.30;99.90
22698;DHT22;11516;51.612;7.510;2022-12-11T12:14:59;2.20;99.90
22698;DHT22;11516;51.612;7.510;2022-12-11T12:17:52;2.20;99.90
22698;DHT22;11516;51.612;7.510;2022-12-11T12:20:45;2.20;99.90
22698;DHT22;11516;51.612;7.510;2022-12-11T12:23:28;2.20;99.90
22698;DHT22;11516;51.612;7.510;2022-12-11T12:31:50;2.10;99.90
22698;DHT22;11516;51.612;7.510;2022-12-11T12:37:07;2.20;99.90
22698;DHT22;11516;51.612;7.510;2022-12-11T12:39:52;2.20;99.90
22698;DHT22;11516;51.612;7.510;2022-12-11T12:45:46;2.20;99.90
22698;DHT22;11516;51.612;7.510;2022-12-11T12:48:13;2.30;99.90
22698;DHT22;11516;51.612;7.510;2022-12-11T12:50:45;2.30;99.90
22698;DHT22;11516;51.612;7.510;2022-12-11T12:53:16;2.20;99.90
22698;DHT22;11516;51.612;7.510;2022-12-11T12:55:42;2.10;99.90
22698;DHT22;11516;51.612;7.510;2022-12-11T12:58:28;2.00;99.90
22698;DHT22;11516;51.612;7.510;2022-12-11T13:01:05;2.00;99.90
22698;DHT22;11516;51.612;7.510;2022-12-11T13:03:35;2.10;99.90
22698;DHT22;11516;51.612;7.510;2022-12-11T13:06:05;2.20;99.90
22698;DHT22;11516;51.612;7.510;2022-12-11T13:08:47;2.10;99.90
22698;DHT22;11516;51.612;7.510;2022-12-11T13:11:16;2.20;99.90
22698;DHT22;11516;51.612;7.510;2022-12-11T13:16:42;2.40;99.90
22698;DHT22;11516;51.612;7.510;2022-12-11T13:27:24;2.30;99.90
22698;DHT22;11516;51.612;7.510;2022-12-11T13:29:51;2.10;99.90
22698;DHT22;11516;51.612;7.510;2022-12-11T13:34:49;2.20;99.90
22698;DHT22;11516;51.612;7.510;2022-12-11T13:37:23;2.20;99.90
22698;DHT22;11516;51.612;7.510;2022-12-11T13:39:50;2.30;99.90
22698;DHT22;11516;51.612;7.510;2022-12-11T13:42:30;2.20;99.90
22698;DHT22;11516;51.612;7.510;2022-12-11T13:44:56;2.20;99.90
22698;DHT22;11516;51.612;7.510;2022-12-11T13:47:23;2.10;99.90
22698;DHT22;11516;51.612;7.510;2022-12-11T13:49:53;2.00;99.90
22698;DHT22;11516;51.612;7.510;2022-12-11T13:52:22;2.00;99.90
22698;DHT22;11516;51.612;7.510;2022-12-11T13:54:54;2.10;99.90
22698;DHT22;11516;51.612;7.510;2022-12-11T13:57:22;2.10;99.90
22698;DHT22;11516;51.612;7.510;2022-12-11T13:59:55;2.10;99.90
22698;DHT22;11516;51.612;7.510;2022-12-11T14:02:27;2.10;99.90
22698;DHT22;11516;51.612;7.510;2022-12-11T14:04:59;2.20;99.90
22698;DHT22;11516;51.612;7.510;2022-12-11T14:07:32;2.30;99.90
22698;DHT22;11516;51.612;7.510;2022-12-11T14:10:05;2.20;99.90
22698;DHT22;11516;51.612;7.510;2022-12-11T14:12:32;2.20;99.90
22698;DHT22;11516;51.612;7.510;2022-12-11T14:14:59;2.20;99.90
22698;DHT22;11516;51.612;7.510;2022-12-11T14:17:31;2.20;99.90
22698;DHT22;11516;51.612;7.510;2022-12-11T14:20:00;2.40;99.90
22698;DHT22;11516;51.612;7.510;2022-12-11T14:22:28;2.30;99.90
22698;DHT22;11516;51.612;7.510;2022-12-11T14:24:59;2.40;99.90
22698;DHT22;11516;51.612;7.510;2022-12-11T14:27:28;2.50;99.90
22698;DHT22;11516;51.612;7.510;2022-12-11T14:29:54;2.50;99.90
22698;DHT22;11516;51.612;7.510;2022-12-11T14:32:31;2.40;99.90
22698;DHT22;11516;51.612;7.510;2022-12-11T14:35:02;2.50;99.90
22698;DHT22;11516;51.612;7.510;2022-12-11T14:37:28;2.30;99.90
22698;DHT22;11516;51.612;7.510;2022-12-11T14:40:08;2.30;99.90
22698;DHT22;11516;51.612;7.510;2022-12-11T14:42:51;2.40;99.90
22698;DHT22;11516;51.612;7.510;2022-12-11T14:45:39;2.50;99.90
22698;DHT22;11516;51.612;7.510;2022-12-11T14:48:12;2.50;99.90
22698;DHT22;11516;51.612;7.510;2022-12-11T14:50:43;2.50;99.90
22698;DHT22;11516;51.612;7.510;2022-12-11T14:53:36;2.50;99.90
22698;DHT22;11516;51.612;7.510;2022-12-11T14:56:04;2.50;99.90
22698;DHT22;11516;51.612;7.510;2022-12-11T14:58:32;2.40;99.90
22698;DHT22;11516;51.612;7.510;2022-12-11T15:01:05;2.50;99.90
22698;DHT22;11516;51.612;7.510;2022-12-11T15:03:34;2.50;99.90
22698;DHT22;11516;51.612;7.510;2022-12-11T15:06:02;2.40;99.90
22698;DHT22;11516;51.612;7.510;2022-12-11T15:08:34;2.40;99.90
22698;DHT22;11516;51.612;7.510;2022-12-11T15:13:32;2.40;99.90
22698;DHT22;11516;51.612;7.510;2022-12-11T15:15:58;2.40;99.90
22698;DHT22;11516;51.612;7.510;2022-12-11T15:18:32;2.40;99.90
22698;DHT22;11516;51.612;7.510;2022-12-11T15:21:03;2.50;99.90
22698;DHT22;11516;51.612;7.510;2022-12-11T15:23:31;2.50;99.90
22698;DHT22;11516;51.612;7.510;2022-12-11T15:25:59;2.40;99.90
22698;DHT22;11516;51.612;7.510;2022-12-11T15:28:32;2.40;99.90
22698;DHT22;11516;51.612;7.510;2022-12-11T15:31:00;2.30;99.90
22698;DHT22;11516;51.612;7.510;2022-12-11T15:33:27;2.30;99.90
22698;DHT22;11516;51.612;7.510;2022-12-11T15:38:30;2.40;99.90
22698;DHT22;11516;51.612;7.510;2022-12-11T15:40:57;2.40;99.90
22698;DHT22;11516;51.612;7.510;2022-12-11T15:43:22;2.40;99.90
22698;DHT22;11516;51.612;7.510;2022-12-11T15:45:48;2.50;99.90
22698;DHT22;11516;51.612;7.510;2022-12-11T15:48:13;2.40;99.90
22698;DHT22;11516;51.612;7.510;2022-12-11T15:50:39;2.40;99.90
22698;DHT22;11516;51.612;7.510;2022-12-11T15:53:05;2.40;99.90
22698;DHT22;11516;51.612;7.510;2022-12-11T15:55:30;2.40;99.90
22698;DHT22;11516;51.612;7.510;2022-12-11T15:58:01;2.40;99.90
22698;DHT22;11516;51.612;7.510;2022-12-11T16:00:27;2.40;99.90
22698;DHT22;11516;51.612;7.510;2022-12-11T16:02:53;2.40;99.90
22698;DHT22;11516;51.612;7.510;2022-12-11T16:05:19;2.40;99.90
22698;DHT22;11516;51.612;7.510;2022-12-11T16:07:46;2.50;99.90
22698;DHT22;11516;51.612;7.510;2022-12-11T16:10:14;2.50;99.90
22698;DHT22;11516;51.612;7.510;2022-12-11T16:12:40;2.50;99.90
22698;DHT22;11516;51.612;7.510;2022-12-11T16:15:08;2.40;99.90
22698;DHT22;11516;51.612;7.510;2022-12-11T16:17:33;2.40;99.90
22698;DHT22;11516;51.612;7.510;2022-12-11T16:19:59;2.40;99.90
22698;DHT22;11516;51.612;7.510;2022-12-11T16:22:24;2.40;99.90
22698;DHT22;11516;51.612;7.510;2022-12-11T16:24:54;2.60;99.90
22698;DHT22;11516;51.612;7.510;2022-12-11T16:27:20;2.50;99.90
22698;DHT22;11516;51.612;7.510;2022-12-11T16:29:46;2.40;99.90
22698;DHT22;11516;51.612;7.510;2022-12-11T16:32:11;2.40;99.90
22698;DHT22;11516;51.612;7.510;2022-12-11T16:34:37;2.20;99.90
22698;DHT22;11516;51.612;7.510;2022-12-11T16:37:05;2.20;99.90
22698;DHT22;11516;51.612;7.510;2022-12-11T16:39:30;2.30;99.90
22698;DHT22;11516;51.612;7.510;2022-12-11T16:41:56;2.30;99.90
22698;DHT22;11516;51.612;7.510;2022-12-11T16:44:24;2.30;99.90
22698;DHT22;11516;51.612;7.510;2022-12-11T16:46:50;2.30;99.90
22698;DHT22;11516;51.612;7.510;2022-12-11T16:49:16;2.30;99.90
22698;DHT22;11516;51.612;7.510;2022-12-11T16:51:41;2.30;99.90
22698;DHT22;11516;51.612;7.510;2022-12-11T16:54:08;2.30;99.90
22698;DHT22;11516;51.612;7.510;2022-12-11T16:56:33;2.40;99.90
22698;DHT22;11516;51.612;7.510;2022-12-11T16:59:02;2.40;99.90
22698;DHT22;11516;51.612;7.510;2022-12-11T17:01:28;2.40;99.90
22698;DHT22;11516;51.612;7.510;2022-12-11T17:03:54;2.40;99.90
22698;DHT22;11516;51.612;7.510;2022-12-11T17:06:19;2.40;99.90
22698;DHT22;11516;51.612;7.510;2022-12-11T17:08:45;2.40;99.90